Time;durP1;ratioP1;P1;durP2;ratioP2;P2;SDS_P1;SDS_P2;PMS_P1;PMS_P2;Temp;Humidity;BMP_temperature;BMP_pressure;BME280_temperature;BME280_humidity;BME280_pressure;Samples;Min_cycle;Max_cycle;Signal;HPM_P1;HPM_P2
2023/05/13 00:00:12;;;;;;;0.20;0.20;;;11.10;99.90;;;;;;5010890;28;20105;-51
2023/05/13 00:02:38;;;;;;;0.10;0.10;;;11.10;99.90;;;;;;5010923;28;20030;-51
2023/05/13 00:05:04;;;;;;;0.20;0.20;;;11.10;99.90;;;;;;5010741;28;20040;-46
2023/05/13 00:07:29;;;;;;;0.43;0.43;;;11.20;99.90;;;;;;5011078;28;20033;-43
2023/05/13 00:09:55;;;;;;;0.30;0.30;;;11.20;99.90;;;;;;5010664;28;20404;-47
2023/05/13 00:12:21;;;;;;;0.20;0.20;;;11.20;99.90;;;;;;5010951;28;20025;-48
2023/05/13 00:14:47;;;;;;;0.40;0.40;;;11.20;99.90;;;;;;5010714;28;20052;-42
2023/05/13 00:17:13;;;;;;;0.40;0.30;;;11.10;99.90;;;;;;5010712;28;20033;-42
2023/05/13 00:19:39;;;;;;;0.30;0.25;;;11.20;99.90;;;;;;5011031;28;20049;-42
2023/05/13 00:22:05;;;;;;;0.77;0.52;;;11.10;99.90;;;;;;5010569;28;20406;-44
2023/05/13 00:24:30;;;;;;;0.20;0.20;;;11.10;99.90;;;;;;5010672;28;20022;-53
2023/05/13 00:26:56;;;;;;;0.10;0.10;;;11.10;99.90;;;;;;5010708;28;20433;-47
2023/05/13 00:29:22;;;;;;;0.20;0.20;;;11.10;99.90;;;;;;5010618;28;20362;-42
2023/05/13 00:31:47;;;;;;;0.20;0.20;;;11.00;99.90;;;;;;5014197;28;20060;-43
2023/05/13 00:34:13;;;;;;;2.35;0.65;;;11.10;99.90;;;;;;5014621;28;20066;-48
2023/05/13 00:36:38;;;;;;;0.20;0.20;;;11.00;99.90;;;;;;5014507;28;20032;-43
2023/05/13 00:39:04;;;;;;;0.30;0.30;;;11.10;99.90;;;;;;5014748;28;20061;-42
2023/05/13 00:41:30;;;;;;;0.32;0.32;;;11.00;99.90;;;;;;5014316;28;20038;-43
2023/05/13 00:43:55;;;;;;;0.20;0.20;;;11.10;99.90;;;;;;5014589;28;20370;-44
2023/05/13 00:46:22;;;;;;;0.20;0.20;;;11.00;99.90;;;;;;5014529;28;20018;-48
2023/05/13 00:48:49;;;;;;;0.68;0.68;;;11.00;99.90;;;;;;5014385;28;20022;-47
2023/05/13 00:51:15;;;;;;;0.20;0.20;;;11.00;99.90;;;;;;5014199;28;20034;-43
2023/05/13 00:53:41;;;;;;;0.95;0.32;;;11.00;99.90;;;;;;5014279;28;20030;-50
2023/05/13 00:56:07;;;;;;;0.20;0.20;;;11.00;99.90;;;;;;5014111;28;20022;-48
2023/05/13 00:58:33;;;;;;;0.40;0.40;;;11.00;99.90;;;;;;5014228;28;20022;-45
2023/05/13 01:01:21;;;;;;;0.20;0.20;;;11.00;99.90;;;;;;5014468;28;20034;-49
2023/05/13 01:04:14;;;;;;;0.38;0.38;;;11.00;99.90;;;;;;4989038;28;20018;-46
2023/05/13 01:06:53;;;;;;;0.13;0.13;;;10.90;99.90;;;;;;5014012;28;20393;-45
2023/05/13 01:09:47;;;;;;;0.43;0.43;;;10.90;99.90;;;;;;5013969;28;20028;-55
2023/05/13 01:12:20;;;;;;;0.20;0.20;;;10.90;99.90;;;;;;5014088;28;20033;-56
2023/05/13 01:15:00;;;;;;;0.20;0.20;;;10.90;99.90;;;;;;5013903;28;20041;-45
2023/05/13 01:17:35;;;;;;;0.20;0.20;;;10.90;99.90;;;;;;5013811;28;20062;-50
2023/05/13 01:20:03;;;;;;;0.40;0.40;;;10.90;99.90;;;;;;5013896;28;20038;-45
2023/05/13 01:22:29;;;;;;;0.20;0.20;;;10.80;99.90;;;;;;5013884;28;20040;-48
2023/05/13 01:24:55;;;;;;;2.63;0.50;;;10.80;99.90;;;;;;5013712;28;20068;-42
2023/05/13 01:27:20;;;;;;;0.20;0.20;;;10.80;99.90;;;;;;5013470;28;20045;-46
2023/05/13 01:29:46;;;;;;;0.20;0.20;;;10.80;99.90;;;;;;5006111;28;20038;-50
2023/05/13 01:32:13;;;;;;;0.30;0.30;;;10.80;99.90;;;;;;4993516;28;20015;-48
2023/05/13 01:34:39;;;;;;;0.20;0.20;;;10.80;99.90;;;;;;4993778;28;20026;-46
2023/05/13 01:37:05;;;;;;;0.30;0.30;;;10.80;99.90;;;;;;4993956;28;20168;-52
2023/05/13 01:39:31;;;;;;;0.20;0.20;;;10.80;99.90;;;;;;4993639;28;20097;-43
2023/05/13 01:41:57;;;;;;;0.20;0.20;;;10.70;99.90;;;;;;4992590;28;20037;-52
2023/05/13 01:44:23;;;;;;;0.13;0.13;;;10.70;99.90;;;;;;4993748;28;20386;-45
2023/05/13 01:46:49;;;;;;;0.75;0.52;;;10.70;99.90;;;;;;4993459;28;20101;-46
2023/05/13 01:49:15;;;;;;;0.20;0.20;;;10.60;99.90;;;;;;4993764;28;20034;-49
2023/05/13 01:51:41;;;;;;;0.20;0.20;;;10.60;99.90;;;;;;4993489;28;20026;-46
2023/05/13 01:54:07;;;;;;;2.45;0.45;;;10.60;99.90;;;;;;4993522;28;20049;-50
2023/05/13 01:56:32;;;;;;;0.20;0.20;;;10.60;99.90;;;;;;4993508;28;20030;-48
2023/05/13 01:58:58;;;;;;;0.20;0.20;;;10.60;99.90;;;;;;4993238;28;20042;-53
2023/05/13 02:01:24;;;;;;;0.20;0.20;;;10.60;99.90;;;;;;4993478;28;20038;-48
2023/05/13 02:03:49;;;;;;;0.30;0.30;;;10.50;99.90;;;;;;4993099;28;20022;-48
2023/05/13 02:06:15;;;;;;;0.25;0.25;;;10.50;99.90;;;;;;4993493;28;20026;-53
2023/05/13 02:08:41;;;;;;;0.20;0.20;;;10.50;99.90;;;;;;4993427;28;20382;-49
2023/05/13 02:11:07;;;;;;;0.28;0.28;;;10.50;99.90;;;;;;5008261;28;20432;-49
2023/05/13 02:13:33;;;;;;;0.75;0.70;;;10.50;99.90;;;;;;4993118;28;20088;-54
2023/05/13 02:15:58;;;;;;;0.20;0.20;;;10.50;99.90;;;;;;4993156;28;20122;-45
2023/05/13 02:18:24;;;;;;;0.22;0.22;;;10.50;99.90;;;;;;4993311;28;20106;-45
2023/05/13 02:20:50;;;;;;;0.20;0.20;;;10.40;99.90;;;;;;4993089;28;20031;-55
2023/05/13 02:23:16;;;;;;;0.50;0.50;;;10.50;99.90;;;;;;5008115;28;20565;-46
2023/05/13 02:25:42;;;;;;;0.17;0.17;;;10.50;99.90;;;;;;4993180;28;20089;-45
2023/05/13 02:28:08;;;;;;;0.20;0.20;;;10.50;99.90;;;;;;4992851;28;20053;-48
2023/05/13 02:30:33;;;;;;;0.20;0.20;;;10.50;99.90;;;;;;4992871;28;20030;-43
2023/05/13 02:33:00;;;;;;;0.20;0.20;;;10.50;99.90;;;;;;4992955;28;20519;-41
2023/05/13 02:35:28;;;;;;;0.20;0.20;;;10.50;99.90;;;;;;4992864;28;20030;-42
2023/05/13 02:37:55;;;;;;;0.20;0.20;;;10.50;99.90;;;;;;4992707;28;20018;-47
2023/05/13 02:40:21;;;;;;;0.28;0.28;;;10.50;99.90;;;;;;4992600;28;20046;-49
2023/05/13 02:42:47;;;;;;;0.20;0.20;;;10.50;99.90;;;;;;4991405;28;20482;-45
2023/05/13 02:45:12;;;;;;;0.40;0.40;;;10.50;99.90;;;;;;4992390;28;20101;-52
2023/05/13 02:47:38;;;;;;;0.30;0.30;;;10.50;99.90;;;;;;4992512;28;20034;-53
2023/05/13 02:50:06;;;;;;;0.95;0.60;;;10.40;99.90;;;;;;4992567;28;20023;-46
2023/05/13 02:52:34;;;;;;;2.17;0.57;;;10.50;99.90;;;;;;4992109;28;20389;-46
2023/05/13 02:55:01;;;;;;;0.20;0.20;;;10.40;99.90;;;;;;4992147;28;20074;-58
2023/05/13 02:57:26;;;;;;;0.20;0.20;;;10.50;99.90;;;;;;4991010;28;20031;-50
2023/05/13 02:59:52;;;;;;;0.20;0.20;;;10.40;99.90;;;;;;4992565;28;20019;-49
2023/05/13 03:02:18;;;;;;;0.30;0.30;;;10.50;99.90;;;;;;4992233;28;20397;-48
2023/05/13 03:04:43;;;;;;;0.45;0.45;;;10.40;99.90;;;;;;4992249;28;20026;-55
2023/05/13 03:07:09;;;;;;;0.20;0.20;;;10.50;99.90;;;;;;4992048;28;20026;-44
2023/05/13 03:09:38;;;;;;;0.30;0.30;;;10.40;99.90;;;;;;4992294;28;20023;-52
2023/05/13 03:12:04;;;;;;;0.20;0.20;;;10.50;99.90;;;;;;4991936;28;20030;-51
2023/05/13 03:14:30;;;;;;;0.20;0.20;;;10.50;99.90;;;;;;4992076;28;20688;-51
2023/05/13 03:16:56;;;;;;;0.20;0.20;;;10.40;99.90;;;;;;4992007;28;20027;-54
2023/05/13 03:19:22;;;;;;;0.20;0.20;;;10.40;99.90;;;;;;4991981;28;20022;-44
2023/05/13 03:21:48;;;;;;;0.20;0.20;;;10.40;99.90;;;;;;4991969;28;20018;-44
2023/05/13 03:24:14;;;;;;;0.20;0.20;;;10.40;99.90;;;;;;4991805;28;20109;-45
2023/05/13 03:26:39;;;;;;;0.20;0.20;;;10.40;99.90;;;;;;4991820;28;20022;-43
2023/05/13 03:29:05;;;;;;;0.20;0.20;;;10.40;99.90;;;;;;4991631;28;20428;-49
2023/05/13 03:31:31;;;;;;;0.20;0.20;;;10.40;99.90;;;;;;4991973;28;20033;-47
2023/05/13 03:33:56;;;;;;;0.20;0.20;;;10.40;99.90;;;;;;4991705;28;20109;-48
2023/05/13 03:36:23;;;;;;;0.32;0.32;;;10.40;99.90;;;;;;4991667;28;20108;-48
2023/05/13 03:38:48;;;;;;;0.65;0.30;;;10.40;99.90;;;;;;4991654;28;20022;-44
2023/05/13 03:41:16;;;;;;;0.20;0.20;;;10.30;99.90;;;;;;4991467;28;20393;-43
2023/05/13 03:43:42;;;;;;;0.20;0.20;;;10.40;99.90;;;;;;4990517;28;20019;-51
2023/05/13 03:46:09;;;;;;;0.30;0.30;;;10.30;99.90;;;;;;4991741;28;20058;-53
2023/05/13 03:48:34;;;;;;;0.30;0.30;;;10.40;99.90;;;;;;4991435;28;20026;-42
2023/05/13 03:51:00;;;;;;;0.28;0.28;;;10.30;99.90;;;;;;5006628;28;20035;-48
2023/05/13 03:53:26;;;;;;;0.20;0.20;;;10.30;99.90;;;;;;4991174;28;20476;-45
2023/05/13 03:55:52;;;;;;;0.20;0.20;;;10.40;99.90;;;;;;4991415;28;20064;-50
2023/05/13 03:58:18;;;;;;;0.20;0.20;;;10.40;99.90;;;;;;4991303;28;20382;-42
2023/05/13 04:00:46;;;;;;;0.20;0.20;;;10.40;99.90;;;;;;4991282;28;20139;-45
2023/05/13 04:03:16;;;;;;;0.20;0.20;;;10.40;99.90;;;;;;4991538;28;20022;-50
2023/05/13 04:05:42;;;;;;;0.20;0.20;;;10.40;99.90;;;;;;4990487;28;20058;-52
2023/05/13 04:08:10;;;;;;;0.43;0.43;;;10.30;99.90;;;;;;4991269;28;20031;-43
2023/05/13 04:10:35;;;;;;;0.22;0.22;;;10.30;99.90;;;;;;4990146;28;20037;-53
2023/05/13 04:13:01;;;;;;;0.32;0.32;;;10.30;99.90;;;;;;4991391;28;20022;-51
2023/05/13 04:15:26;;;;;;;0.20;0.20;;;10.40;99.90;;;;;;4991178;28;20568;-43
2023/05/13 04:17:52;;;;;;;0.20;0.20;;;10.40;99.90;;;;;;4991189;28;20468;-49
2023/05/13 04:20:18;;;;;;;0.75;0.60;;;10.30;99.90;;;;;;4991194;28;20588;-46
2023/05/13 04:22:44;;;;;;;12.38;2.13;;;10.30;99.90;;;;;;4990944;28;20026;-49
2023/05/13 04:25:10;;;;;;;5.35;3.42;;;10.30;99.90;;;;;;4991232;28;20035;-44
2023/05/13 04:27:36;;;;;;;9.40;3.30;;;10.30;99.90;;;;;;4991014;28;20029;-42
2023/05/13 04:30:02;;;;;;;3.47;1.88;;;10.30;99.90;;;;;;4991171;28;20033;-46
2023/05/13 04:32:27;;;;;;;12.18;3.78;;;10.30;99.90;;;;;;5002435;28;20029;-48
2023/05/13 04:34:53;;;;;;;1.13;0.95;;;10.30;99.90;;;;;;4991021;28;20026;-51
2023/05/13 04:37:19;;;;;;;0.52;0.52;;;10.40;99.90;;;;;;4990944;28;20023;-51
2023/05/13 04:39:45;;;;;;;2.45;1.20;;;10.40;99.90;;;;;;4990594;28;20027;-48
2023/05/13 04:42:12;;;;;;;0.50;0.40;;;10.40;99.90;;;;;;4990977;28;20095;-43
2023/05/13 04:44:38;;;;;;;0.77;0.60;;;10.40;99.90;;;;;;4992046;28;20034;-54
2023/05/13 04:47:04;;;;;;;0.40;0.40;;;10.40;99.90;;;;;;4991240;28;20481;-54
2023/05/13 04:49:29;;;;;;;0.22;0.22;;;10.40;99.90;;;;;;4990889;28;20093;-41
2023/05/13 04:51:56;;;;;;;0.20;0.20;;;10.40;99.90;;;;;;4989502;28;20018;-47
2023/05/13 04:54:22;;;;;;;0.43;0.43;;;10.40;99.90;;;;;;4990897;28;20038;-41
2023/05/13 04:56:47;;;;;;;0.20;0.20;;;10.40;99.90;;;;;;4990719;28;20026;-41
2023/05/13 04:59:13;;;;;;;0.40;0.40;;;10.40;99.90;;;;;;4990911;28;20054;-41
2023/05/13 05:01:39;;;;;;;0.40;0.30;;;10.50;99.90;;;;;;4990602;28;20388;-50
2023/05/13 05:04:05;;;;;;;0.60;0.60;;;10.50;99.90;;;;;;4990625;28;20037;-45
2023/05/13 05:06:31;;;;;;;2.75;1.48;;;10.50;99.90;;;;;;4990578;28;20035;-56
2023/05/13 05:08:57;;;;;;;2.65;1.05;;;10.60;99.90;;;;;;4990621;28;20517;-46
2023/05/13 05:11:23;;;;;;;0.70;0.40;;;10.60;99.90;;;;;;4990842;28;20038;-54
2023/05/13 05:13:49;;;;;;;0.63;0.40;;;10.60;99.90;;;;;;4990587;28;20035;-55
2023/05/13 05:16:15;;;;;;;0.75;0.32;;;10.70;99.90;;;;;;4991798;28;20482;-46
2023/05/13 05:18:42;;;;;;;0.35;0.35;;;10.70;99.90;;;;;;4994184;28;20074;-49
2023/05/13 05:21:08;;;;;;;0.20;0.20;;;10.80;99.90;;;;;;4994259;28;20072;-46
2023/05/13 05:23:34;;;;;;;0.47;0.47;;;10.80;99.90;;;;;;4993994;28;20042;-46
2023/05/13 05:26:00;;;;;;;0.30;0.30;;;10.80;99.90;;;;;;4993789;28;20023;-51
2023/05/13 05:28:26;;;;;;;0.20;0.20;;;10.80;99.90;;;;;;4994303;28;20033;-44
2023/05/13 05:30:52;;;;;;;0.20;0.20;;;10.90;99.90;;;;;;4993884;28;20385;-44
2023/05/13 05:33:18;;;;;;;0.20;0.20;;;10.90;99.90;;;;;;4994019;28;20026;-48
2023/05/13 05:35:44;;;;;;;0.10;0.10;;;11.00;99.90;;;;;;4993591;28;20105;-53
2023/05/13 05:38:11;;;;;;;0.20;0.20;;;11.10;99.90;;;;;;4993852;28;20173;-52
2023/05/13 05:40:40;;;;;;;0.40;0.40;;;11.00;99.90;;;;;;4993873;28;20089;-44
2023/05/13 05:43:06;;;;;;;0.20;0.20;;;11.10;99.90;;;;;;4993773;28;20516;-46
2023/05/13 05:45:34;;;;;;;0.30;0.30;;;11.10;99.90;;;;;;4993982;28;20030;-43
2023/05/13 05:48:00;;;;;;;0.20;0.20;;;11.10;99.90;;;;;;4993751;28;20110;-46
2023/05/13 05:50:27;;;;;;;0.10;0.10;;;11.10;99.90;;;;;;4993592;28;20098;-43
2023/05/13 05:52:53;;;;;;;0.10;0.10;;;11.20;99.90;;;;;;4993926;28;20113;-52
2023/05/13 05:55:19;;;;;;;0.45;0.40;;;11.20;99.90;;;;;;4993560;28;20085;-47
2023/05/13 05:57:45;;;;;;;0.10;0.10;;;11.20;99.90;;;;;;4993699;28;20100;-42
2023/05/13 06:00:11;;;;;;;0.10;0.10;;;11.20;99.90;;;;;;4994546;28;20038;-44
2023/05/13 06:02:36;;;;;;;0.10;0.10;;;11.30;99.90;;;;;;5005425;28;20089;-52
2023/05/13 06:05:02;;;;;;;0.20;0.20;;;11.40;99.90;;;;;;4993468;28;20034;-42
2023/05/13 06:07:28;;;;;;;0.20;0.20;;;11.40;99.90;;;;;;4993120;28;20022;-46
2023/05/13 06:09:54;;;;;;;0.20;0.20;;;11.50;99.90;;;;;;4993494;28;20022;-48
2023/05/13 06:12:21;;;;;;;0.20;0.20;;;11.50;99.90;;;;;;4993178;28;20385;-54
2023/05/13 06:14:47;;;;;;;0.20;0.20;;;11.60;99.90;;;;;;4993164;28;20042;-43
2023/05/13 06:17:13;;;;;;;0.20;0.20;;;11.60;99.90;;;;;;4993077;28;20037;-51
2023/05/13 06:19:41;;;;;;;0.20;0.20;;;11.50;99.90;;;;;;4993135;28;20026;-52
2023/05/13 06:22:08;;;;;;;0.20;0.20;;;11.60;99.90;;;;;;4991755;28;20029;-52
2023/05/13 06:24:34;;;;;;;0.20;0.20;;;11.60;99.90;;;;;;4993065;28;20425;-56
2023/05/13 06:27:00;;;;;;;0.10;0.10;;;11.70;99.90;;;;;;4993013;28;20065;-46
2023/05/13 06:29:26;;;;;;;0.20;0.20;;;11.70;99.90;;;;;;4992167;28;20402;-48
2023/05/13 06:31:52;;;;;;;0.20;0.20;;;11.80;99.90;;;;;;4993269;28;20446;-45
2023/05/13 06:34:17;;;;;;;0.10;0.10;;;11.90;99.90;;;;;;4992684;28;20134;-50
2023/05/13 06:36:43;;;;;;;0.20;0.20;;;11.80;99.90;;;;;;4992910;28;20022;-45
2023/05/13 06:39:10;;;;;;;0.20;0.20;;;11.90;99.90;;;;;;4992606;28;20026;-52
2023/05/13 06:41:36;;;;;;;0.10;0.10;;;12.10;99.90;;;;;;4992407;28;20058;-44
2023/05/13 06:44:02;;;;;;;0.17;0.17;;;12.10;99.90;;;;;;4992785;28;20443;-49
2023/05/13 06:46:28;;;;;;;0.43;0.40;;;12.20;99.90;;;;;;4992422;28;20054;-56
2023/05/13 06:48:55;;;;;;;0.13;0.13;;;12.10;99.90;;;;;;4992689;28;20377;-56
2023/05/13 06:51:21;;;;;;;0.10;0.10;;;12.20;99.90;;;;;;4992488;28;20501;-47
2023/05/13 06:53:47;;;;;;;0.20;0.20;;;12.30;99.90;;;;;;4992342;28;20044;-51
2023/05/13 06:56:12;;;;;;;0.10;0.10;;;12.40;99.90;;;;;;4992679;28;20023;-49
2023/05/13 06:58:38;;;;;;;0.20;0.20;;;12.60;99.90;;;;;;4992363;28;20456;-50
2023/05/13 07:01:04;;;;;;;0.10;0.10;;;12.90;99.90;;;;;;4992424;28;20367;-55
2023/05/13 07:03:29;;;;;;;0.10;0.10;;;13.30;99.90;;;;;;4992193;28;20026;-50
2023/05/13 07:05:55;;;;;;;0.30;0.30;;;13.90;99.90;;;;;;4992418;28;20030;-43
2023/05/13 07:08:21;;;;;;;0.20;0.20;;;14.50;99.90;;;;;;4992467;28;20076;-42
2023/05/13 07:10:46;;;;;;;0.10;0.10;;;15.00;99.90;;;;;;4991798;28;20029;-43
2023/05/13 07:13:12;;;;;;;0.10;0.10;;;15.30;99.90;;;;;;4992394;28;20106;-45
2023/05/13 07:15:38;;;;;;;0.15;0.15;;;15.80;99.90;;;;;;4991723;28;20513;-43
2023/05/13 07:18:03;;;;;;;0.10;0.10;;;16.20;99.90;;;;;;4995809;28;20093;-53
2023/05/13 07:20:30;;;;;;;0.35;0.22;;;16.90;99.90;;;;;;4997244;28;20062;-49
2023/05/13 07:22:55;;;;;;;0.17;0.17;;;17.50;99.90;;;;;;4991811;28;20477;-52
2023/05/13 07:25:21;;;;;;;0.22;0.20;;;18.30;99.90;;;;;;4991954;28;20057;-43
2023/05/13 07:27:47;;;;;;;0.10;0.10;;;19.20;99.90;;;;;;4991693;28;20026;-51
2023/05/13 07:30:13;;;;;;;0.20;0.20;;;19.40;99.90;;;;;;4982881;28;20057;-52
2023/05/13 07:32:39;;;;;;;0.00;0.00;;;20.00;99.10;;;;;;4995062;28;20493;-48
2023/05/13 07:35:05;;;;;;;0.10;0.10;;;20.70;97.10;;;;;;4997412;28;20512;-43
2023/05/13 07:37:31;;;;;;;0.00;0.00;;;21.00;95.60;;;;;;5003576;28;20041;-54
2023/05/13 07:39:56;;;;;;;0.20;0.20;;;21.50;92.30;;;;;;4992359;28;20034;-51
2023/05/13 07:42:23;;;;;;;0.10;0.10;;;21.80;91.30;;;;;;5002909;28;20057;-48
2023/05/13 07:44:48;;;;;;;0.10;0.10;;;22.50;90.90;;;;;;4996185;28;20030;-45
2023/05/13 07:47:14;;;;;;;0.10;0.10;;;23.00;83.30;;;;;;4991545;28;20031;-50
2023/05/13 07:49:40;;;;;;;0.00;0.00;;;23.30;80.70;;;;;;4991530;28;20022;-48
2023/05/13 07:52:05;;;;;;;0.10;0.10;;;23.30;80.20;;;;;;4991517;28;20102;-46
2023/05/13 07:54:31;;;;;;;0.10;0.10;;;24.40;80.30;;;;;;4991180;28;20031;-46
2023/05/13 07:56:57;;;;;;;0.38;0.32;;;24.80;73.90;;;;;;4991506;28;20508;-45
2023/05/13 07:59:22;;;;;;;0.00;0.00;;;25.10;74.50;;;;;;4994712;28;20030;-48
2023/05/13 08:01:48;;;;;;;0.08;0.08;;;25.80;73.30;;;;;;4990868;28;20061;-48
2023/05/13 08:04:14;;;;;;;0.10;0.10;;;25.80;70.50;;;;;;4991132;28;20046;-55
2023/05/13 08:06:39;;;;;;;0.28;0.15;;;24.90;66.50;;;;;;4991422;28;20113;-47
2023/05/13 08:09:05;;;;;;;0.00;0.00;;;24.80;68.20;;;;;;4991387;28;20030;-52
2023/05/13 08:11:31;;;;;;;0.10;0.10;;;24.00;70.50;;;;;;4991252;28;20385;-51
2023/05/13 08:13:56;;;;;;;0.50;0.30;;;23.10;73.40;;;;;;4997226;28;20038;-44
2023/05/13 08:16:22;;;;;;;0.28;0.20;;;23.10;74.70;;;;;;4995129;28;20037;-48
2023/05/13 08:18:48;;;;;;;0.20;0.20;;;22.40;73.80;;;;;;5008615;28;20057;-47
2023/05/13 08:21:13;;;;;;;0.17;0.17;;;21.60;73.00;;;;;;5005524;28;20747;-50
2023/05/13 08:23:39;;;;;;;0.08;0.08;;;21.60;78.10;;;;;;5006448;28;20048;-53
2023/05/13 08:26:04;;;;;;;0.10;0.10;;;21.40;75.80;;;;;;5001082;28;20061;-48
2023/05/13 08:28:30;;;;;;;0.45;0.20;;;21.20;78.80;;;;;;5005154;28;20378;-42
2023/05/13 08:31:01;;;;;;;0.10;0.10;;;21.10;77.50;;;;;;5003731;28;20120;-43
2023/05/13 08:33:30;;;;;;;0.15;0.05;;;21.30;80.30;;;;;;4987574;28;20030;-48
2023/05/13 08:35:56;;;;;;;0.10;0.10;;;21.60;77.60;;;;;;5007698;28;20092;-50
2023/05/13 08:38:22;;;;;;;0.00;0.00;;;21.90;77.10;;;;;;5006396;28;20046;-48
2023/05/13 08:40:47;;;;;;;0.10;0.10;;;22.10;80.60;;;;;;4991394;28;20096;-45
2023/05/13 08:43:17;;;;;;;0.20;0.17;;;22.60;78.00;;;;;;4991709;28;20026;-49
2023/05/13 08:45:46;;;;;;;0.25;0.25;;;22.40;78.30;;;;;;5002179;28;20429;-44
2023/05/13 08:48:14;;;;;;;0.70;0.20;;;22.10;78.80;;;;;;4993309;28;20092;-48
2023/05/13 08:50:40;;;;;;;0.10;0.10;;;23.00;78.00;;;;;;4993504;28;20080;-43
2023/05/13 08:53:06;;;;;;;0.08;0.08;;;23.20;73.50;;;;;;4996950;28;20501;-42
2023/05/13 08:55:32;;;;;;;0.10;0.10;;;23.80;75.30;;;;;;4999134;28;20109;-46
2023/05/13 08:57:58;;;;;;;0.10;0.10;;;24.70;72.60;;;;;;5001775;28;20549;-48
2023/05/13 09:00:24;;;;;;;0.10;0.10;;;25.00;66.50;;;;;;4996922;28;20022;-46
2023/05/13 09:02:50;;;;;;;0.10;0.10;;;25.10;68.20;;;;;;4994477;28;20033;-42
2023/05/13 09:05:16;;;;;;;0.10;0.10;;;26.00;71.60;;;;;;4994495;28;20401;-42
2023/05/13 09:07:42;;;;;;;0.10;0.10;;;26.00;70.50;;;;;;4994492;28;20015;-48
2023/05/13 09:10:09;;;;;;;0.10;0.10;;;26.20;65.20;;;;;;4994314;28;20029;-42
2023/05/13 09:12:48;;;;;;;0.10;0.10;;;25.60;67.10;;;;;;5000572;28;20524;-43
2023/05/13 09:15:25;;;;;;;0.45;0.40;;;26.10;66.30;;;;;;4994371;28;20046;-43
2023/05/13 09:18:06;;;;;;;0.20;0.20;;;26.10;68.30;;;;;;5005144;28;20023;-44
2023/05/13 09:20:33;;;;;;;0.30;0.30;;;26.20;67.70;;;;;;4994134;28;20085;-50
2023/05/13 09:23:11;;;;;;;0.40;0.20;;;26.30;66.40;;;;;;5000248;28;20022;-50
2023/05/13 09:25:38;;;;;;;0.32;0.20;;;26.60;64.20;;;;;;4998893;28;20508;-50
2023/05/13 09:28:06;;;;;;;0.00;0.00;;;26.70;68.30;;;;;;4994128;28;20030;-53
2023/05/13 09:30:39;;;;;;;0.20;0.20;;;26.70;68.40;;;;;;4994253;28;20089;-46
2023/05/13 09:33:16;;;;;;;0.00;0.00;;;26.70;69.80;;;;;;4993745;28;20122;-53
2023/05/13 09:35:51;;;;;;;0.10;0.10;;;26.30;68.20;;;;;;5002182;28;20037;-52
2023/05/13 09:38:20;;;;;;;0.20;0.13;;;26.00;65.40;;;;;;4989782;28;20041;-46
2023/05/13 09:40:49;;;;;;;0.10;0.10;;;26.20;66.70;;;;;;4993791;28;20182;-49
2023/05/13 09:43:15;;;;;;;0.10;0.10;;;25.90;70.00;;;;;;4993631;28;20046;-48
2023/05/13 09:45:41;;;;;;;0.20;0.20;;;26.10;68.50;;;;;;4993467;28;20441;-44
2023/05/13 09:48:07;;;;;;;0.10;0.10;;;25.90;65.20;;;;;;4993376;28;20034;-53
2023/05/13 09:50:33;;;;;;;0.32;0.20;;;25.80;66.00;;;;;;4993821;28;20046;-48
2023/05/13 09:53:10;;;;;;;0.10;0.10;;;25.70;65.40;;;;;;4993760;28;20135;-42
2023/05/13 09:55:36;;;;;;;0.10;0.10;;;25.70;68.20;;;;;;4993343;28;20049;-42
2023/05/13 09:58:08;;;;;;;0.10;0.10;;;25.80;72.50;;;;;;4993675;28;20026;-43
2023/05/13 10:00:34;;;;;;;0.15;0.15;;;25.90;66.70;;;;;;4992867;28;20041;-49
2023/05/13 10:03:01;;;;;;;0.57;0.57;;;26.10;64.80;;;;;;4991738;28;20014;-43
2023/05/13 10:05:26;;;;;;;0.20;0.20;;;25.50;62.90;;;;;;4992915;28;20507;-44
2023/05/13 10:07:53;;;;;;;0.10;0.10;;;25.00;63.90;;;;;;4993261;28;20026;-44
2023/05/13 10:10:19;;;;;;;0.00;0.00;;;25.00;68.90;;;;;;4993044;28;20374;-47
2023/05/13 10:12:45;;;;;;;0.10;0.10;;;25.40;69.50;;;;;;4993024;28;20081;-48
2023/05/13 10:15:11;;;;;;;0.10;0.10;;;25.50;67.10;;;;;;4993528;28;20057;-49
2023/05/13 10:17:38;;;;;;;0.10;0.10;;;24.80;63.40;;;;;;4993037;28;20026;-44
2023/05/13 10:20:06;;;;;;;0.03;0.03;;;25.30;67.50;;;;;;4993478;28;20095;-52
2023/05/13 10:22:33;;;;;;;0.10;0.10;;;24.70;64.20;;;;;;4993135;28;20022;-43
2023/05/13 10:25:01;;;;;;;1.75;0.32;;;24.70;67.40;;;;;;4993163;28;20064;-45
2023/05/13 10:27:30;;;;;;;0.40;0.28;;;24.50;69.40;;;;;;4992921;28;20085;-45
2023/05/13 10:29:57;;;;;;;0.25;0.20;;;24.50;66.00;;;;;;5008893;28;20384;-54
2023/05/13 10:32:28;;;;;;;0.10;0.10;;;24.50;63.70;;;;;;4998064;28;20030;-51
2023/05/13 10:35:03;;;;;;;0.00;0.00;;;24.80;70.20;;;;;;4992848;28;20457;-48
2023/05/13 10:37:49;;;;;;;0.10;0.10;;;25.20;71.60;;;;;;5004102;28;20049;-45
2023/05/13 10:40:37;;;;;;;0.20;0.20;;;25.00;67.00;;;;;;5003591;28;20084;-44
2023/05/13 10:43:25;;;;;;;0.00;0.00;;;24.80;66.10;;;;;;5011082;28;20022;-51
2023/05/13 10:45:56;;;;;;;0.20;0.20;;;25.10;66.80;;;;;;4999609;28;20011;-53
2023/05/13 10:48:21;;;;;;;0.00;0.00;;;25.10;68.80;;;;;;5002966;28;20485;-48
2023/05/13 10:50:55;;;;;;;0.10;0.10;;;25.50;70.00;;;;;;5003025;28;20040;-45
2023/05/13 10:53:30;;;;;;;0.00;0.00;;;25.20;64.70;;;;;;5006130;28;20029;-51
2023/05/13 10:55:58;;;;;;;0.30;0.20;;;25.20;71.20;;;;;;5007463;28;20037;-44
2023/05/13 10:58:36;;;;;;;0.20;0.20;;;25.40;67.20;;;;;;5008616;28;20404;-50
2023/05/13 11:01:17;;;;;;;0.10;0.10;;;25.50;69.70;;;;;;4989075;28;20120;-44
2023/05/13 11:03:58;;;;;;;0.17;0.17;;;25.20;63.20;;;;;;5008969;28;20048;-53
2023/05/13 11:06:28;;;;;;;0.20;0.20;;;25.30;66.90;;;;;;4992352;28;20148;-45
2023/05/13 11:08:54;;;;;;;0.10;0.10;;;25.50;70.60;;;;;;4993982;28;20539;-46
2023/05/13 11:11:22;;;;;;;0.10;0.10;;;25.30;62.60;;;;;;4992161;28;20113;-45
2023/05/13 11:13:53;;;;;;;0.10;0.10;;;24.80;66.80;;;;;;5001217;28;20505;-52
2023/05/13 11:16:20;;;;;;;0.35;0.20;;;24.80;67.10;;;;;;4992128;28;20370;-48
2023/05/13 11:18:46;;;;;;;0.20;0.20;;;24.90;73.90;;;;;;4991864;28;20026;-46
2023/05/13 11:21:12;;;;;;;0.40;0.25;;;24.60;64.20;;;;;;4991853;28;20503;-44
2023/05/13 11:24:00;;;;;;;0.10;0.10;;;24.40;66.60;;;;;;4991880;28;20030;-45
2023/05/13 11:26:39;;;;;;;0.17;0.17;;;24.10;65.90;;;;;;4991981;28;20049;-44
2023/05/13 11:29:05;;;;;;;0.43;0.32;;;24.10;66.30;;;;;;4991426;28;20018;-48
2023/05/13 11:31:57;;;;;;;0.13;0.10;;;24.60;73.20;;;;;;4991615;28;20034;-43
2023/05/13 11:34:24;;;;;;;0.22;0.22;;;25.00;73.30;;;;;;4989578;28;20125;-45
2023/05/13 11:37:09;;;;;;;0.20;0.17;;;24.80;66.70;;;;;;4991594;28;20022;-55
2023/05/13 11:39:38;;;;;;;0.10;0.10;;;24.60;65.70;;;;;;4991392;28;20047;-43
2023/05/13 11:42:09;;;;;;;0.10;0.10;;;24.50;66.10;;;;;;4991503;28;20042;-48
2023/05/13 11:44:43;;;;;;;0.17;0.17;;;24.20;67.90;;;;;;4991709;28;20061;-49
2023/05/13 11:47:08;;;;;;;0.20;0.20;;;23.60;67.50;;;;;;4991728;28;20030;-46
2023/05/13 11:49:45;;;;;;;0.57;0.10;;;24.00;67.80;;;;;;4995559;28;20104;-48
2023/05/13 11:52:16;;;;;;;0.08;0.08;;;23.90;65.90;;;;;;4991490;28;20033;-47
2023/05/13 11:54:43;;;;;;;0.15;0.15;;;23.90;68.70;;;;;;4992635;28;20489;-52
2023/05/13 11:57:25;;;;;;;0.10;0.10;;;24.20;72.70;;;;;;4992903;28;20022;-46
2023/05/13 11:59:56;;;;;;;0.10;0.10;;;24.40;71.80;;;;;;4991364;28;20120;-47
2023/05/13 12:02:24;;;;;;;0.00;0.00;;;24.60;69.70;;;;;;4991264;28;20022;-48
2023/05/13 12:04:51;;;;;;;0.10;0.10;;;24.30;68.20;;;;;;4991252;28;20037;-50
2023/05/13 12:07:24;;;;;;;0.10;0.10;;;24.10;67.90;;;;;;4991091;28;20022;-42
2023/05/13 12:09:51;;;;;;;0.20;0.20;;;24.30;71.20;;;;;;4991416;28;20058;-43
2023/05/13 12:12:18;;;;;;;0.17;0.17;;;24.30;67.50;;;;;;4991228;28;20054;-46
2023/05/13 12:14:45;;;;;;;0.10;0.10;;;24.50;69.20;;;;;;4990884;28;20068;-45
2023/05/13 12:17:14;;;;;;;0.10;0.10;;;24.70;72.40;;;;;;4990959;28;20057;-49
2023/05/13 12:19:57;;;;;;;0.20;0.17;;;24.80;67.70;;;;;;4991045;28;20030;-42
2023/05/13 12:22:22;;;;;;;2.17;0.20;;;24.40;69.00;;;;;;4991747;28;20034;-53
2023/05/13 12:24:48;;;;;;;0.20;0.20;;;24.00;68.40;;;;;;4990969;28;20073;-44
2023/05/13 12:27:13;;;;;;;0.10;0.10;;;24.30;72.30;;;;;;5004982;28;20058;-44
2023/05/13 12:29:42;;;;;;;0.10;0.10;;;24.00;71.00;;;;;;5001772;28;20535;-48
2023/05/13 12:32:10;;;;;;;0.10;0.10;;;24.00;69.40;;;;;;5000696;28;20148;-43
2023/05/13 12:34:37;;;;;;;0.10;0.10;;;23.80;69.10;;;;;;5003957;28;20235;-44
2023/05/13 12:37:11;;;;;;;0.47;0.30;;;23.30;70.30;;;;;;5010691;28;20097;-51
2023/05/13 12:39:37;;;;;;;0.10;0.10;;;23.10;70.10;;;;;;4997803;28;20036;-44
2023/05/13 12:42:02;;;;;;;0.10;0.10;;;23.20;71.30;;;;;;4996225;28;20051;-47
2023/05/13 12:44:30;;;;;;;0.30;0.30;;;23.40;73.00;;;;;;4996969;28;20367;-43
2023/05/13 12:46:57;;;;;;;0.17;0.13;;;23.60;72.60;;;;;;5003516;28;20030;-51
2023/05/13 12:49:23;;;;;;;0.10;0.10;;;23.30;68.90;;;;;;4994519;28;20030;-44